Time;durP1;ratioP1;P1;durP2;ratioP2;P2;SDS_P1;SDS_P2;PMS_P1;PMS_P2;Temp;Humidity;BMP_temperature;BMP_pressure;BME280_temperature;BME280_humidity;BME280_pressure;Samples;Min_cycle;Max_cycle;Signal;HPM_P1;HPM_P2
2023/10/11 00:00:33;;;;;;;24.43;11.60;;;10.30;99.90;;;;;;5115148;28;20246;-67
2023/10/11 00:03:04;;;;;;;18.10;11.07;;;10.30;99.90;;;;;;5114961;28;20226;-67
2023/10/11 00:05:36;;;;;;;25.57;11.47;;;10.20;99.90;;;;;;5115004;28;20249;-67
2023/10/11 00:08:03;;;;;;;21.17;10.77;;;10.10;99.90;;;;;;5114845;28;20245;-67
2023/10/11 00:10:29;;;;;;;23.10;11.53;;;10.10;99.90;;;;;;5114688;28;20666;-67
2023/10/11 00:12:58;;;;;;;21.17;9.90;;;10.10;99.90;;;;;;5114801;28;20192;-67
2023/10/11 00:15:26;;;;;;;16.13;10.40;;;10.10;99.90;;;;;;5114771;28;20210;-67
2023/10/11 00:17:53;;;;;;;23.10;11.67;;;10.00;99.90;;;;;;5114652;28;20200;-67
2023/10/11 00:20:28;;;;;;;21.07;11.93;;;10.00;99.90;;;;;;5114476;28;20277;-67
2023/10/11 00:22:55;;;;;;;18.67;12.23;;;10.00;99.90;;;;;;5114669;28;20230;-66
2023/10/11 00:25:24;;;;;;;21.30;13.17;;;10.00;99.90;;;;;;5114683;28;20272;-67
2023/10/11 00:27:52;;;;;;;20.60;11.83;;;10.00;99.90;;;;;;5114486;28;20256;-67
2023/10/11 00:30:21;;;;;;;24.07;13.13;;;10.00;99.90;;;;;;5114243;28;20223;-67
2023/10/11 00:32:48;;;;;;;21.77;12.03;;;9.90;99.90;;;;;;5114245;28;20234;-67
2023/10/11 00:35:19;;;;;;;20.40;11.37;;;9.90;99.90;;;;;;5114514;28;20232;-68
2023/10/11 00:37:47;;;;;;;20.87;11.57;;;9.90;99.90;;;;;;5114162;28;20725;-67
2023/10/11 00:40:14;;;;;;;19.50;11.83;;;9.80;99.90;;;;;;5114280;28;20199;-67
2023/10/11 00:42:41;;;;;;;18.97;12.27;;;9.80;99.90;;;;;;5114146;28;20223;-67
2023/10/11 00:45:09;;;;;;;21.47;11.40;;;9.80;99.90;;;;;;5113995;28;20195;-67
2023/10/11 00:47:40;;;;;;;19.83;11.10;;;9.80;99.90;;;;;;5113853;28;20206;-67
2023/10/11 00:50:14;;;;;;;20.07;11.57;;;9.80;99.90;;;;;;5114188;27;20282;-67
2023/10/11 00:52:41;;;;;;;21.27;11.33;;;9.70;99.90;;;;;;5114028;28;20203;-67
2023/10/11 00:55:14;;;;;;;20.07;10.87;;;9.70;99.90;;;;;;5113713;28;20667;-67
2023/10/11 00:57:41;;;;;;;20.43;11.43;;;9.70;99.90;;;;;;5113974;28;20195;-67
2023/10/11 01:00:12;;;;;;;17.90;11.97;;;9.70;99.90;;;;;;5113664;28;20221;-67
2023/10/11 01:02:40;;;;;;;20.30;12.37;;;9.70;99.90;;;;;;5113639;28;20215;-67
2023/10/11 01:05:07;;;;;;;20.50;12.10;;;9.70;99.90;;;;;;5113924;28;20341;-67
2023/10/11 01:07:34;;;;;;;22.63;13.90;;;9.70;99.90;;;;;;5113876;28;20200;-67
2023/10/11 01:10:01;;;;;;;23.47;13.87;;;9.60;99.90;;;;;;5113663;28;20601;-67
2023/10/11 01:12:27;;;;;;;24.40;13.50;;;9.70;99.90;;;;;;5113480;28;20199;-67
2023/10/11 01:15:00;;;;;;;25.43;13.63;;;9.70;99.90;;;;;;5113824;28;20191;-67
2023/10/11 01:17:27;;;;;;;22.53;12.73;;;9.60;99.90;;;;;;5113629;28;20202;-67
2023/10/11 01:19:55;;;;;;;22.63;14.00;;;9.60;99.90;;;;;;5113556;28;20227;-66
2023/10/11 01:22:23;;;;;;;22.30;13.23;;;9.60;99.90;;;;;;5113526;28;20261;-67
2023/10/11 01:24:50;;;;;;;22.93;13.83;;;9.60;99.90;;;;;;5113363;28;20248;-67
2023/10/11 01:27:17;;;;;;;22.23;12.80;;;9.60;99.90;;;;;;5113424;28;20570;-67
2023/10/11 01:29:44;;;;;;;22.63;12.57;;;9.50;99.90;;;;;;5113463;28;20261;-67
2023/10/11 01:32:12;;;;;;;21.70;12.70;;;9.40;99.90;;;;;;5113541;28;20226;-66
2023/10/11 01:34:39;;;;;;;19.67;12.50;;;9.40;99.90;;;;;;5113427;28;20199;-66
2023/10/11 01:37:06;;;;;;;18.10;10.87;;;9.50;99.90;;;;;;5113315;28;20205;-67
2023/10/11 01:39:34;;;;;;;19.20;12.07;;;9.50;99.90;;;;;;5112762;28;20249;-67
2023/10/11 01:42:01;;;;;;;16.83;11.23;;;9.40;99.90;;;;;;5113408;28;20264;-67
2023/10/11 01:44:30;;;;;;;19.83;11.50;;;9.50;99.90;;;;;;5113327;28;20315;-67
2023/10/11 01:46:57;;;;;;;18.93;11.80;;;9.50;99.90;;;;;;5113186;28;20195;-67
2023/10/11 01:49:24;;;;;;;19.87;11.20;;;9.50;99.90;;;;;;5113141;28;20241;-66
2023/10/11 01:51:52;;;;;;;23.10;11.63;;;9.60;99.90;;;;;;5113113;28;20564;-68
2023/10/11 01:54:22;;;;;;;17.53;12.40;;;9.60;99.90;;;;;;5112945;28;20662;-67
2023/10/11 01:56:52;;;;;;;19.13;11.90;;;9.70;99.90;;;;;;5113329;28;20191;-66
2023/10/11 01:59:19;;;;;;;17.60;11.07;;;9.70;99.90;;;;;;5112832;28;20719;-67
2023/10/11 02:01:58;;;;;;;20.73;11.50;;;9.70;99.90;;;;;;5113132;28;20203;-67
2023/10/11 02:04:25;;;;;;;21.70;12.53;;;9.60;99.90;;;;;;5112790;28;20231;-67
2023/10/11 02:06:52;;;;;;;20.10;11.77;;;9.60;99.90;;;;;;5112941;28;20196;-67
2023/10/11 02:09:21;;;;;;;17.40;10.50;;;9.60;99.90;;;;;;5113141;28;20593;-68
2023/10/11 02:11:52;;;;;;;18.53;11.37;;;9.50;99.90;;;;;;5112873;28;20619;-69
2023/10/11 02:14:20;;;;;;;18.03;11.30;;;9.50;99.90;;;;;;5113080;28;20211;-67
2023/10/11 02:16:46;;;;;;;19.40;10.93;;;9.50;99.90;;;;;;5112807;28;20597;-68
2023/10/11 02:19:15;;;;;;;20.20;10.93;;;9.50;99.90;;;;;;5112801;28;20200;-67
2023/10/11 02:21:44;;;;;;;17.53;11.13;;;9.50;99.90;;;;;;5112814;28;20666;-68
2023/10/11 02:24:14;;;;;;;17.10;10.80;;;9.50;99.90;;;;;;5112948;28;20563;-68
2023/10/11 02:26:41;;;;;;;18.67;11.13;;;9.50;99.90;;;;;;5112959;28;20231;-67
2023/10/11 02:29:15;;;;;;;18.27;11.30;;;9.40;99.90;;;;;;5112736;28;20295;-69
2023/10/11 02:31:43;;;;;;;19.57;11.67;;;9.40;99.90;;;;;;5112845;28;20204;-68
2023/10/11 02:34:13;;;;;;;23.90;10.93;;;9.50;99.90;;;;;;5112973;28;20294;-68
2023/10/11 02:36:42;;;;;;;18.70;10.97;;;9.50;99.90;;;;;;5112943;28;20227;-68
2023/10/11 02:39:17;;;;;;;24.67;11.40;;;9.40;99.90;;;;;;5112738;28;20196;-68
2023/10/11 02:41:47;;;;;;;20.40;10.67;;;9.40;99.90;;;;;;5112693;28;20199;-68
2023/10/11 02:44:14;;;;;;;18.23;11.20;;;9.40;99.90;;;;;;5112520;28;20233;-68
2023/10/11 02:46:43;;;;;;;16.73;10.17;;;9.50;99.90;;;;;;5112955;28;20199;-69
2023/10/11 02:49:19;;;;;;;16.83;10.83;;;9.40;99.90;;;;;;5116124;28;20222;-68
2023/10/11 02:51:52;;;;;;;19.40;11.53;;;9.40;99.90;;;;;;5123253;28;20231;-68
2023/10/11 02:54:19;;;;;;;19.00;11.70;;;9.40;99.90;;;;;;5122584;28;20234;-68
2023/10/11 02:56:47;;;;;;;24.63;11.57;;;9.40;99.90;;;;;;5116157;28;20249;-68
2023/10/11 02:59:19;;;;;;;19.93;11.50;;;9.30;99.90;;;;;;5116329;28;20203;-68
2023/10/11 03:01:49;;;;;;;19.50;10.80;;;9.40;99.90;;;;;;5116190;28;20199;-68
2023/10/11 03:04:17;;;;;;;22.20;11.47;;;9.40;99.90;;;;;;5116011;28;20223;-68
2023/10/11 03:06:49;;;;;;;21.37;11.43;;;9.40;99.90;;;;;;5115929;28;20223;-67
2023/10/11 03:09:18;;;;;;;18.67;10.87;;;9.30;99.90;;;;;;5115980;28;20579;-67
2023/10/11 03:11:45;;;;;;;19.53;10.87;;;9.30;99.90;;;;;;5115793;28;20196;-68
2023/10/11 03:14:13;;;;;;;20.90;11.33;;;9.30;99.90;;;;;;5116073;28;20211;-68
2023/10/11 03:16:42;;;;;;;20.97;10.83;;;9.30;99.90;;;;;;5115877;28;20195;-67
2023/10/11 03:19:10;;;;;;;17.57;11.17;;;9.30;99.90;;;;;;5115747;28;20192;-68
2023/10/11 03:21:38;;;;;;;16.80;11.07;;;9.30;99.90;;;;;;5115610;28;20203;-68
2023/10/11 03:24:05;;;;;;;16.93;10.53;;;9.30;99.90;;;;;;5115764;28;20223;-68
2023/10/11 03:26:33;;;;;;;19.70;11.53;;;9.30;99.90;;;;;;5115796;28;20346;-68
2023/10/11 03:29:03;;;;;;;16.10;10.87;;;9.20;99.90;;;;;;5115725;28;20219;-68
2023/10/11 03:31:31;;;;;;;20.80;11.43;;;9.20;99.90;;;;;;5115619;28;20206;-68
2023/10/11 03:33:59;;;;;;;17.43;11.57;;;9.30;99.90;;;;;;5115368;28;20196;-67
2023/10/11 03:36:35;;;;;;;19.80;11.07;;;9.30;99.90;;;;;;5115370;28;20291;-68
2023/10/11 03:39:09;;;;;;;17.13;10.57;;;9.30;99.90;;;;;;5115548;28;20248;-68
2023/10/11 03:41:36;;;;;;;17.83;10.80;;;9.30;99.90;;;;;;5115406;28;20235;-67
2023/10/11 03:44:09;;;;;;;17.03;10.07;;;9.30;99.90;;;;;;5115296;28;20253;-68
2023/10/11 03:46:36;;;;;;;18.13;10.80;;;9.30;99.90;;;;;;5115123;28;20659;-68
2023/10/11 03:49:35;;;;;;;17.97;11.00;;;9.30;99.90;;;;;;5115429;28;20252;-68
2023/10/11 03:52:04;;;;;;;19.50;11.03;;;9.40;99.90;;;;;;5115160;28;20200;-68
2023/10/11 03:54:36;;;;;;;20.20;11.10;;;9.40;99.90;;;;;;5115095;28;20246;-68
2023/10/11 03:57:04;;;;;;;20.73;11.27;;;9.40;99.90;;;;;;5114983;28;20200;-67
2023/10/11 03:59:38;;;;;;;18.57;10.37;;;9.40;99.90;;;;;;5115167;28;20203;-68
2023/10/11 04:02:10;;;;;;;16.67;9.93;;;9.50;99.90;;;;;;5114777;28;20225;-68
2023/10/11 04:04:40;;;;;;;15.97;9.83;;;9.50;99.90;;;;;;5114736;28;20223;-68
2023/10/11 04:07:06;;;;;;;16.30;10.80;;;9.40;99.90;;;;;;5114661;28;20199;-68
2023/10/11 04:09:37;;;;;;;21.07;10.73;;;9.40;99.90;;;;;;5114566;28;20540;-68
2023/10/11 04:12:04;;;;;;;20.80;11.13;;;9.40;99.90;;;;;;5114820;28;20195;-68
2023/10/11 04:14:43;;;;;;;17.20;11.20;;;9.30;99.90;;;;;;5114795;28;20196;-67
2023/10/11 04:17:15;;;;;;;17.20;10.50;;;9.30;99.90;;;;;;5114668;28;20207;-67
2023/10/11 04:19:43;;;;;;;25.40;12.23;;;9.30;99.90;;;;;;5114504;28;20286;-68
2023/10/11 04:22:16;;;;;;;21.20;11.10;;;9.30;99.90;;;;;;5114339;28;20211;-68
2023/10/11 04:24:45;;;;;;;21.13;11.40;;;9.40;99.90;;;;;;5114318;28;20747;-68
2023/10/11 04:30:17;;;;;;;22.97;11.60;;;9.40;99.90;;;;;;5087637;28;20226;-67
2023/10/11 04:32:45;;;;;;;18.67;11.30;;;9.30;99.90;;;;;;5114131;28;20203;-68
2023/10/11 04:35:21;;;;;;;20.67;11.60;;;9.40;99.90;;;;;;5114183;28;20192;-68
2023/10/11 04:37:54;;;;;;;15.07;9.97;;;9.40;99.90;;;;;;5114106;28;20205;-68
2023/10/11 04:40:35;;;;;;;18.83;12.03;;;9.40;99.90;;;;;;5114225;28;20552;-67
2023/10/11 04:43:05;;;;;;;20.13;12.00;;;9.50;99.90;;;;;;5113882;28;20192;-67
2023/10/11 04:45:43;;;;;;;19.37;11.50;;;9.50;99.90;;;;;;5114411;28;20238;-67
2023/10/11 04:48:14;;;;;;;20.73;12.23;;;9.40;99.90;;;;;;5113948;28;20203;-67
2023/10/11 04:50:47;;;;;;;17.80;10.97;;;9.50;99.90;;;;;;5113900;28;20214;-67
2023/10/11 04:53:17;;;;;;;17.43;11.27;;;9.50;99.90;;;;;;5113698;28;20635;-67
2023/10/11 04:55:58;;;;;;;17.87;11.00;;;9.50;99.90;;;;;;5113912;28;20207;-67
2023/10/11 04:58:39;;;;;;;18.60;11.33;;;9.40;99.90;;;;;;5113801;28;20191;-67
2023/10/11 05:01:08;;;;;;;18.23;11.27;;;9.40;99.90;;;;;;5113761;28;20287;-67
2023/10/11 05:03:37;;;;;;;16.77;11.33;;;9.40;99.90;;;;;;5113668;28;20682;-68
2023/10/11 05:06:12;;;;;;;16.20;11.10;;;9.40;99.90;;;;;;5113581;28;20245;-68
2023/10/11 05:08:52;;;;;;;21.63;11.57;;;9.40;99.90;;;;;;5113676;28;20199;-68
2023/10/11 05:11:32;;;;;;;19.43;10.87;;;9.40;99.90;;;;;;5113622;28;20203;-68
2023/10/11 05:14:10;;;;;;;20.17;11.40;;;9.30;99.90;;;;;;5112773;28;20199;-68
2023/10/11 05:16:44;;;;;;;19.47;11.73;;;9.30;99.90;;;;;;5113585;28;20197;-67
2023/10/11 05:19:14;;;;;;;18.97;11.93;;;9.30;99.90;;;;;;5113653;28;20206;-68
2023/10/11 05:21:43;;;;;;;18.80;11.47;;;9.30;99.90;;;;;;5113285;28;20646;-68
2023/10/11 05:27:03;;;;;;;24.07;12.87;;;9.20;99.90;;;;;;5110778;28;20206;-68
2023/10/11 05:29:32;;;;;;;22.73;12.53;;;9.20;99.90;;;;;;5113242;28;20237;-67
2023/10/11 05:32:20;;;;;;;18.73;11.80;;;9.10;99.90;;;;;;5113122;28;20633;-68
2023/10/11 05:35:19;;;;;;;24.63;12.97;;;9.10;99.90;;;;;;5151289;27;20549;-67
2023/10/11 05:51:40;;;;;;;24.83;12.90;;;9.10;99.90;;;;;;5067331;28;20196;-67
2023/10/11 05:54:08;;;;;;;29.53;12.83;;;9.20;99.90;;;;;;5115417;28;20318;-67
2023/10/11 05:56:38;;;;;;;23.70;12.20;;;9.30;99.90;;;;;;5130768;28;20199;-67
2023/10/11 05:59:09;;;;;;;21.27;11.73;;;9.30;99.90;;;;;;5130506;28;20227;-67
2023/10/11 06:01:36;;;;;;;21.10;11.90;;;9.40;99.90;;;;;;5130461;28;20195;-66
2023/10/11 06:04:04;;;;;;;21.13;11.27;;;9.40;99.90;;;;;;5130403;28;20288;-67
2023/10/11 06:06:38;;;;;;;20.60;12.53;;;9.40;99.90;;;;;;5130022;28;20202;-67
2023/10/11 06:09:08;;;;;;;17.37;11.00;;;9.50;99.90;;;;;;5130410;28;20206;-68
2023/10/11 06:11:38;;;;;;;26.13;12.30;;;9.60;99.90;;;;;;5130467;28;20199;-67
2023/10/11 06:14:06;;;;;;;20.17;11.77;;;9.70;99.90;;;;;;5130269;28;20227;-68
2023/10/11 06:16:37;;;;;;;19.40;11.33;;;9.70;99.90;;;;;;5130178;28;20199;-67
2023/10/11 06:19:16;;;;;;;19.87;11.47;;;9.80;99.90;;;;;;5129959;28;20198;-67
2023/10/11 06:21:56;;;;;;;23.27;11.70;;;9.80;99.90;;;;;;5130271;28;20198;-67
2023/10/11 06:24:24;;;;;;;17.93;11.30;;;9.90;99.90;;;;;;5129995;28;20750;-67
2023/10/11 06:26:53;;;;;;;19.40;10.83;;;10.00;99.90;;;;;;5129936;28;20191;-67
2023/10/11 06:29:23;;;;;;;22.57;10.90;;;10.00;99.90;;;;;;5129832;28;20195;-67
2023/10/11 06:31:50;;;;;;;19.13;11.40;;;10.10;99.90;;;;;;5129984;28;20204;-67
2023/10/11 06:34:23;;;;;;;22.93;11.77;;;10.10;99.90;;;;;;5129782;28;20239;-67
2023/10/11 06:36:50;;;;;;;20.87;11.10;;;10.10;99.90;;;;;;5129900;28;20286;-67
2023/10/11 06:42:12;;;;;;;18.90;11.47;;;10.10;99.90;;;;;;5129689;28;20202;-67
2023/10/11 06:44:38;;;;;;;22.93;12.30;;;10.20;99.90;;;;;;5125710;28;20198;-67
2023/10/11 06:47:05;;;;;;;22.17;12.07;;;10.30;99.90;;;;;;5115853;28;20195;-67
2023/10/11 06:49:40;;;;;;;22.13;12.67;;;10.50;99.90;;;;;;5115740;28;20207;-67
2023/10/11 06:52:07;;;;;;;26.57;12.53;;;10.70;99.90;;;;;;5115586;28;20646;-67
2023/10/11 06:54:34;;;;;;;18.83;12.47;;;10.80;99.90;;;;;;5115535;28;20223;-67
2023/10/11 06:57:01;;;;;;;20.43;11.57;;;11.00;99.90;;;;;;5115608;28;20655;-67
2023/10/11 06:59:29;;;;;;;22.57;12.40;;;11.20;99.90;;;;;;5115719;28;20669;-67
2023/10/11 07:01:59;;;;;;;23.40;12.27;;;11.30;99.90;;;;;;5115793;28;20200;-67
2023/10/11 07:04:36;;;;;;;24.60;11.67;;;11.50;99.90;;;;;;5115634;28;20207;-67
2023/10/11 07:07:07;;;;;;;20.33;11.90;;;11.70;99.90;;;;;;5115854;28;20202;-67
2023/10/11 07:09:39;;;;;;;18.67;11.03;;;11.90;99.90;;;;;;5115435;28;20651;-67
2023/10/11 07:12:28;;;;;;;18.43;11.60;;;12.10;99.90;;;;;;5115460;28;20540;-67
2023/10/11 07:14:58;;;;;;;18.87;11.90;;;12.30;99.90;;;;;;5115235;28;20276;-67
2023/10/11 07:17:25;;;;;;;20.97;12.03;;;12.60;99.90;;;;;;5115633;28;20282;-67
2023/10/11 07:19:52;;;;;;;17.80;11.03;;;12.70;99.90;;;;;;5115346;28;20208;-67
2023/10/11 07:22:19;;;;;;;20.27;11.70;;;13.00;99.90;;;;;;5115143;28;20721;-67
2023/10/11 07:24:55;;;;;;;22.97;11.50;;;13.20;99.90;;;;;;5115101;28;20211;-67
2023/10/11 07:27:26;;;;;;;20.97;12.20;;;13.40;99.90;;;;;;5115047;28;20671;-67
2023/10/11 07:29:54;;;;;;;19.30;10.80;;;13.60;99.90;;;;;;5115371;28;20196;-67
2023/10/11 07:32:21;;;;;;;17.33;10.23;;;13.80;99.90;;;;;;5115252;28;20195;-67
2023/10/11 07:34:48;;;;;;;20.27;9.83;;;14.10;99.90;;;;;;5114717;28;20695;-67
2023/10/11 07:37:18;;;;;;;21.03;9.87;;;14.30;99.90;;;;;;5115088;28;20195;-67
2023/10/11 07:39:47;;;;;;;19.40;10.77;;;14.60;99.90;;;;;;5114800;28;20291;-67
2023/10/11 07:42:18;;;;;;;16.50;9.67;;;14.80;99.90;;;;;;5114815;28;20202;-68
2023/10/11 07:44:50;;;;;;;17.33;10.43;;;15.10;99.90;;;;;;5114908;28;20234;-68
2023/10/11 07:47:18;;;;;;;16.57;10.17;;;15.30;99.90;;;;;;5114952;28;20195;-68
2023/10/11 07:49:49;;;;;;;15.43;10.18;;;15.50;99.90;;;;;;5114734;28;20589;-68
2023/10/11 07:52:19;;;;;;;19.17;10.38;;;15.70;99.90;;;;;;5114743;28;20749;-69
2023/10/11 07:54:46;;;;;;;20.38;10.40;;;16.00;99.90;;;;;;5114463;28;20712;-68
2023/10/11 07:57:14;;;;;;;17.98;9.35;;;16.20;99.90;;;;;;5117402;28;20203;-68
2023/10/11 07:59:41;;;;;;;17.17;8.95;;;16.50;99.90;;;;;;5122682;28;20230;-68
2023/10/11 08:02:26;;;;;;;12.50;8.05;;;16.80;99.90;;;;;;5123451;28;20200;-69
2023/10/11 08:04:54;;;;;;;19.70;7.25;;;17.10;99.90;;;;;;5114455;28;20316;-68
2023/10/11 08:07:22;;;;;;;17.42;8.02;;;17.30;99.90;;;;;;5114875;28;20195;-68
2023/10/11 08:09:52;;;;;;;23.33;8.45;;;17.60;99.90;;;;;;5114441;28;20543;-69
2023/10/11 08:12:22;;;;;;;13.20;6.15;;;18.00;99.90;;;;;;5114292;28;20608;-69
2023/10/11 08:14:49;;;;;;;14.65;6.88;;;18.20;99.90;;;;;;5114266;28;20276;-70
2023/10/11 08:17:16;;;;;;;16.35;6.43;;;18.30;99.90;;;;;;5114215;28;20693;-67
2023/10/11 08:19:45;;;;;;;14.57;6.75;;;18.50;99.90;;;;;;5113998;28;20196;-67
2023/10/11 08:22:14;;;;;;;29.08;6.47;;;18.70;99.90;;;;;;5114252;28;20236;-68
2023/10/11 08:24:48;;;;;;;16.75;6.20;;;18.80;99.90;;;;;;5114131;28;20200;-67
2023/10/11 08:27:22;;;;;;;15.45;6.13;;;19.00;99.90;;;;;;5114029;28;20659;-67
2023/10/11 08:29:54;;;;;;;11.85;6.18;;;19.20;99.30;;;;;;5113767;28;20621;-69
2023/10/11 08:32:25;;;;;;;14.48;6.72;;;19.30;98.60;;;;;;5114323;28;20228;-68
2023/10/11 08:34:52;;;;;;;20.98;6.10;;;19.50;98.30;;;;;;5113782;28;20242;-67
2023/10/11 08:37:20;;;;;;;14.13;6.03;;;19.60;97.50;;;;;;5113973;28;20550;-67
2023/10/11 08:39:47;;;;;;;15.73;5.70;;;19.90;96.90;;;;;;5113780;28;20558;-67
2023/10/11 08:42:15;;;;;;;13.65;6.57;;;20.20;96.30;;;;;;5113708;28;20566;-69
2023/10/11 08:44:45;;;;;;;12.27;6.10;;;20.30;96.30;;;;;;5113271;28;20206;-69
2023/10/11 08:47:16;;;;;;;14.02;6.25;;;20.60;95.00;;;;;;5113704;28;20227;-67
2023/10/11 08:49:48;;;;;;;15.30;6.70;;;20.90;95.60;;;;;;5113611;28;20204;-67
2023/10/11 08:52:22;;;;;;;18.73;6.47;;;21.20;94.70;;;;;;5112955;28;20290;-67
2023/10/11 08:54:49;;;;;;;12.82;6.13;;;21.60;94.10;;;;;;5113553;28;20223;-67
2023/10/11 08:57:23;;;;;;;12.93;6.90;;;21.90;93.00;;;;;;5113484;28;20195;-67
2023/10/11 08:59:50;;;;;;;10.77;6.85;;;22.20;92.70;;;;;;5113646;28;20210;-68
2023/10/11 09:02:18;;;;;;;14.45;6.75;;;22.70;92.10;;;;;;5113574;28;20199;-69
2023/10/11 09:04:57;;;;;;;14.00;6.60;;;22.80;90.40;;;;;;5113370;28;20223;-68
2023/10/11 09:07:45;;;;;;;17.35;6.57;;;23.00;90.10;;;;;;5113094;28;20264;-70
2023/10/11 09:10:23;;;;;;;13.77;6.40;;;23.10;86.40;;;;;;5113393;28;20217;-70
2023/10/11 09:12:56;;;;;;;12.13;6.60;;;22.90;84.80;;;;;;5113387;28;20201;-68
2023/10/11 09:15:22;;;;;;;15.00;6.63;;;22.90;83.50;;;;;;5113368;28;20227;-68
2023/10/11 09:17:50;;;;;;;17.77;6.93;;;22.80;84.40;;;;;;5113181;28;20253;-67
2023/10/11 09:20:23;;;;;;;15.18;6.60;;;22.80;83.10;;;;;;5113300;28;20195;-67
2023/10/11 09:22:55;;;;;;;16.10;6.80;;;22.90;82.20;;;;;;5113388;28;20202;-67
2023/10/11 09:25:23;;;;;;;17.48;6.35;;;23.10;83.00;;;;;;5113201;28;20241;-68
2023/10/11 09:27:51;;;;;;;17.05;6.07;;;23.40;81.40;;;;;;5113088;28;20206;-67
2023/10/11 09:30:21;;;;;;;12.15;6.20;;;23.50;80.00;;;;;;5112892;28;20207;-67
2023/10/11 09:32:51;;;;;;;18.42;6.30;;;23.50;79.80;;;;;;5113129;28;20199;-68
2023/10/11 09:35:26;;;;;;;9.43;5.47;;;23.50;79.70;;;;;;5113125;28;20316;-68
2023/10/11 09:37:56;;;;;;;15.82;5.70;;;23.70;78.30;;;;;;5113082;28;20195;-69
2023/10/11 09:40:30;;;;;;;13.82;5.25;;;23.70;78.60;;;;;;5112859;28;20195;-68
2023/10/11 09:43:00;;;;;;;12.25;5.20;;;24.00;77.90;;;;;;5112861;28;20202;-68
2023/10/11 09:45:41;;;;;;;10.30;5.13;;;23.80;76.00;;;;;;5113043;28;20290;-67
2023/10/11 09:48:12;;;;;;;11.93;5.38;;;23.70;76.70;;;;;;5113131;28;20286;-67
2023/10/11 09:50:41;;;;;;;15.35;5.43;;;24.00;76.10;;;;;;5112821;28;20223;-67
2023/10/11 09:53:11;;;;;;;12.00;5.53;;;24.20;75.80;;;;;;5112753;28;20199;-69
2023/10/11 09:55:44;;;;;;;11.20;5.05;;;24.50;73.80;;;;;;5112605;28;20223;-68
2023/10/11 09:58:17;;;;;;;12.32;5.28;;;24.50;74.10;;;;;;5112938;28;20203;-68
2023/10/11 10:00:53;;;;;;;16.35;5.20;;;24.50;73.10;;;;;;5112704;28;20288;-68
2023/10/11 10:03:24;;;;;;;9.88;4.70;;;24.80;72.50;;;;;;5112823;28;20195;-67
2023/10/11 10:06:07;;;;;;;19.02;5.53;;;24.60;71.20;;;;;;5112372;28;20199;-67
2023/10/11 10:08:35;;;;;;;14.55;6.13;;;24.80;71.20;;;;;;5112889;28;20275;-68
2023/10/11 10:11:03;;;;;;;15.57;4.95;;;24.90;70.80;;;;;;5112734;28;20240;-68
2023/10/11 10:13:30;;;;;;;13.00;5.45;;;24.90;70.80;;;;;;5112921;28;20280;-68
2023/10/11 10:15:57;;;;;;;14.70;5.75;;;25.20;70.00;;;;;;5112498;28;20589;-68
2023/10/11 10:18:26;;;;;;;14.20;5.15;;;26.50;68.60;;;;;;5112702;28;20196;-68
2023/10/11 10:21:02;;;;;;;11.13;4.93;;;26.40;68.00;;;;;;5115064;28;20196;-68
2023/10/11 10:23:30;;;;;;;9.13;4.93;;;26.30;66.40;;;;;;5116611;28;20733;-68
2023/10/11 10:26:41;;;;;;;10.05;5.45;;;26.70;65.20;;;;;;5116568;28;20195;-68
2023/10/11 10:29:12;;;;;;;11.40;4.90;;;27.50;64.60;;;;;;5116756;28;20242;-69
2023/10/11 10:32:08;;;;;;;9.95;5.13;;;27.30;61.80;;;;;;5116655;28;20221;-68
2023/10/11 10:34:41;;;;;;;14.52;5.05;;;27.10;62.10;;;;;;5116115;28;20262;-68
2023/10/11 10:37:08;;;;;;;13.13;5.43;;;27.40;62.50;;;;;;5116279;28;20199;-68
2023/10/11 10:39:47;;;;;;;11.18;4.90;;;27.60;61.00;;;;;;5115816;28;20608;-68
2023/10/11 10:42:16;;;;;;;9.98;4.82;;;27.70;59.30;;;;;;5116300;28;20198;-68
2023/10/11 10:44:49;;;;;;;11.18;4.60;;;28.60;58.20;;;;;;5116086;28;20556;-68
2023/10/11 10:47:22;;;;;;;11.70;4.95;;;28.60;56.40;;;;;;5116036;28;20562;-68
2023/10/11 10:49:51;;;;;;;9.85;5.10;;;27.80;55.90;;;;;;5116233;28;20540;-68
2023/10/11 10:52:18;;;;;;;19.38;5.63;;;28.70;55.90;;;;;;5116100;28;20200;-68
2023/10/11 10:55:01;;;;;;;9.32;4.82;;;29.00;53.80;;;;;;5116030;28;20265;-68
2023/10/11 10:57:28;;;;;;;11.82;5.38;;;28.90;53.70;;;;;;5115944;28;20245;-68
2023/10/11 10:59:55;;;;;;;10.68;4.60;;;28.70;54.20;;;;;;5115825;28;20200;-68
2023/10/11 11:02:22;;;;;;;12.63;5.13;;;29.10;53.20;;;;;;5115760;28;20199;-68
2023/10/11 11:04:47;;;;;;;11.98;5.07;;;29.70;53.00;;;;;;5115925;28;20245;-69
2023/10/11 11:07:33;;;;;;;14.63;5.55;;;29.50;51.70;;;;;;5115839;28;20200;-68
2023/10/11 11:09:58;;;;;;;12.52;5.22;;;29.60;51.10;;;;;;5115861;28;20253;-68
2023/10/11 11:12:28;;;;;;;9.70;5.50;;;29.60;50.90;;;;;;5115591;28;20203;-68
2023/10/11 11:14:58;;;;;;;12.38;4.72;;;29.90;50.80;;;;;;5115865;28;20321;-69
2023/10/11 11:17:26;;;;;;;10.93;4.72;;;30.50;50.30;;;;;;5115624;28;20204;-69
2023/10/11 11:20:13;;;;;;;12.98;5.30;;;30.60;49.50;;;;;;5115523;28;20287;-69
2023/10/11 11:22:40;;;;;;;14.38;5.40;;;30.70;49.30;;;;;;5115454;28;20202;-67
2023/10/11 11:25:16;;;;;;;15.38;5.15;;;31.60;47.40;;;;;;5115387;28;20260;-70
2023/10/11 11:27:43;;;;;;;14.05;5.03;;;29.80;47.20;;;;;;5115282;28;20683;-70
2023/10/11 11:30:33;;;;;;;11.80;5.35;;;30.70;47.00;;;;;;5115261;28;20195;-69
2023/10/11 11:33:00;;;;;;;12.52;4.90;;;29.40;45.80;;;;;;5115331;28;20765;-70
2023/10/11 11:35:29;;;;;;;12.82;4.75;;;29.60;46.90;;;;;;5115122;28;20323;-70
2023/10/11 11:38:02;;;;;;;11.57;5.35;;;29.90;45.90;;;;;;5115074;28;20723;-70
2023/10/11 11:40:30;;;;;;;10.27;5.00;;;29.30;45.20;;;;;;5114998;28;20238;-70
2023/10/11 11:43:00;;;;;;;9.65;4.40;;;30.20;45.00;;;;;;5115061;28;20192;-69
2023/10/11 11:45:35;;;;;;;11.82;4.80;;;29.70;44.60;;;;;;5123019;27;20215;-70
2023/10/11 11:48:01;;;;;;;10.23;4.78;;;30.70;44.00;;;;;;5135218;27;20313;-69
2023/10/11 11:50:33;;;;;;;9.60;5.40;;;31.40;43.40;;;;;;5135519;27;20206;-69
2023/10/11 11:52:58;;;;;;;14.93;5.38;;;30.80;43.00;;;;;;5135325;27;20195;-69
2023/10/11 11:55:26;;;;;;;11.77;4.90;;;31.10;42.90;;;;;;5135237;27;20283;-69
2023/10/11 11:57:52;;;;;;;14.15;5.40;;;29.70;42.70;;;;;;5135152;27;20642;-70
2023/10/11 12:00:38;;;;;;;10.93;5.10;;;30.70;43.00;;;;;;5135179;27;20273;-69
2023/10/11 12:03:06;;;;;;;12.05;4.82;;;31.00;42.60;;;;;;5135346;27;20225;-69
2023/10/11 12:05:37;;;;;;;13.73;5.00;;;31.60;41.90;;;;;;5135246;27;20202;-69
2023/10/11 12:08:06;;;;;;;11.32;5.20;;;32.80;41.60;;;;;;5135180;27;20290;-69
2023/10/11 12:10:33;;;;;;;11.30;4.97;;;31.70;40.80;;;;;;5135015;27;20199;-68
2023/10/11 12:13:05;;;;;;;14.35;4.97;;;31.60;41.00;;;;;;5124675;27;20195;-69
2023/10/11 12:15:32;;;;;;;10.00;4.65;;;30.90;40.80;;;;;;5115333;27;20242;-69
2023/10/11 12:17:59;;;;;;;12.45;4.90;;;31.10;39.50;;;;;;5125724;27;20247;-69
2023/10/11 12:20:34;;;;;;;15.63;5.55;;;32.50;39.70;;;;;;5134617;27;20673;-69
2023/10/11 12:23:07;;;;;;;15.75;5.45;;;32.20;39.20;;;;;;5134807;27;20636;-69
2023/10/11 12:25:35;;;;;;;14.40;5.18;;;33.10;38.30;;;;;;5134596;27;20202;-69
2023/10/11 12:28:03;;;;;;;15.63;5.47;;;32.90;38.00;;;;;;5134768;27;20207;-69
2023/10/11 12:30:33;;;;;;;18.52;6.63;;;32.50;37.50;;;;;;5134367;27;20668;-69
2023/10/11 12:33:04;;;;;;;12.48;5.68;;;32.10;38.00;;;;;;5134313;27;20226;-69
2023/10/11 12:35:36;;;;;;;15.48;5.00;;;32.00;37.90;;;;;;5134463;27;20236;-69
2023/10/11 12:38:03;;;;;;;12.68;5.15;;;33.70;37.50;;;;;;5134440;27;20239;-68
2023/10/11 12:40:34;;;;;;;9.65;4.75;;;34.10;36.50;;;;;;5134333;27;20194;-69
2023/10/11 12:43:02;;;;;;;14.32;5.00;;;33.60;35.90;;;;;;5114010;27;20289;-68
2023/10/11 12:45:28;;;;;;;13.25;5.15;;;33.90;35.50;;;;;;5126626;27;20526;-68
2023/10/11 12:47:55;;;;;;;17.38;5.88;;;32.50;36.10;;;;;;5134347;27;20202;-68
2023/10/11 12:50:21;;;;;;;12.02;4.97;;;32.10;36.70;;;;;;5134032;27;20230;-68
2023/10/11 12:52:52;;;;;;;12.75;4.85;;;33.40;35.10;;;;;;5134026;27;20271;-68
2023/10/11 12:55:20;;;;;;;15.85;5.18;;;32.80;35.40;;;;;;5133731;27;20221;-68
2023/10/11 12:57:48;;;;;;;10.02;4.60;;;32.10;35.90;;;;;;5136866;27;20198;-69
2023/10/11 13:00:28;;;;;;;14.88;4.97;;;33.00;35.50;;;;;;5143966;27;20195;-69
2023/10/11 13:02:58;;;;;;;15.40;5.35;;;33.30;34.40;;;;;;5142791;27;20654;-68
2023/10/11 13:05:26;;;;;;;12.15;4.50;;;33.60;34.30;;;;;;5134171;27;20198;-69
2023/10/11 13:07:55;;;;;;;10.65;4.88;;;34.40;33.50;;;;;;5134145;27;20557;-69
2023/10/11 13:10:22;;;;;;;12.10;4.50;;;34.30;32.80;;;;;;5126455;27;20197;-70
2023/10/11 13:12:50;;;;;;;10.57;4.43;;;34.40;31.90;;;;;;5113237;28;20322;-70
2023/10/11 13:15:18;;;;;;;18.67;4.93;;;34.90;32.60;;;;;;5118446;27;20600;-70